sensor_id;sensor_type;location;lat;lon;timestamp;P1;durP1;ratioP1;P2;durP2;ratioP2
62121;SDS011;48108;47.532;19.084;2024-01-16T05:07:54;2.65;;;2.33;;
62121;SDS011;48108;47.532;19.084;2024-01-16T05:10:57;2.65;;;2.45;;
62121;SDS011;48108;47.532;19.084;2024-01-16T05:14:00;2.80;;;2.42;;
62121;SDS011;48108;47.532;19.084;2024-01-16T05:17:03;2.85;;;2.47;;
62121;SDS011;48108;47.532;19.084;2024-01-16T05:20:06;2.47;;;2.28;;
62121;SDS011;48108;47.532;19.084;2024-01-16T05:23:10;3.28;;;2.97;;
62121;SDS011;48108;47.532;19.084;2024-01-16T05:26:13;4.55;;;2.78;;
62121;SDS011;48108;47.532;19.084;2024-01-16T05:29:17;3.30;;;2.87;;
62121;SDS011;48108;47.532;19.084;2024-01-16T05:32:20;2.95;;;2.75;;
62121;SDS011;48108;47.532;19.084;2024-01-16T05:35:24;3.65;;;2.72;;
62121;SDS011;48108;47.532;19.084;2024-01-16T05:38:27;8.05;;;2.60;;
62121;SDS011;48108;47.532;19.084;2024-01-16T05:41:33;2.90;;;2.60;;
62121;SDS011;48108;47.532;19.084;2024-01-16T05:44:39;2.80;;;2.45;;
62121;SDS011;48108;47.532;19.084;2024-01-16T05:47:42;3.37;;;3.08;;
62121;SDS011;48108;47.532;19.084;2024-01-16T05:50:45;3.50;;;3.10;;
62121;SDS011;48108;47.532;19.084;2024-01-16T05:53:48;5.07;;;2.67;;
62121;SDS011;48108;47.532;19.084;2024-01-16T05:56:51;5.37;;;3.72;;
62121;SDS011;48108;47.532;19.084;2024-01-16T05:59:54;2.67;;;2.47;;
62121;SDS011;48108;47.532;19.084;2024-01-16T06:02:57;4.40;;;3.08;;
62121;SDS011;48108;47.532;19.084;2024-01-16T06:06:00;3.37;;;2.80;;
62121;SDS011;48108;47.532;19.084;2024-01-16T06:09:03;6.00;;;2.85;;
62121;SDS011;48108;47.532;19.084;2024-01-16T06:12:08;4.20;;;2.70;;
62121;SDS011;48108;47.532;19.084;2024-01-16T06:15:11;3.05;;;2.55;;
62121;SDS011;48108;47.532;19.084;2024-01-16T06:18:17;5.40;;;2.97;;
62121;SDS011;48108;47.532;19.084;2024-01-16T06:21:19;3.70;;;2.53;;
62121;SDS011;48108;47.532;19.084;2024-01-16T06:24:26;3.72;;;2.83;;
62121;SDS011;48108;47.532;19.084;2024-01-16T06:27:28;3.62;;;3.15;;
62121;SDS011;48108;47.532;19.084;2024-01-16T06:30:32;3.65;;;2.55;;
62121;SDS011;48108;47.532;19.084;2024-01-16T06:33:35;5.65;;;2.30;;
62121;SDS011;48108;47.532;19.084;2024-01-16T06:36:38;2.83;;;2.45;;
62121;SDS011;48108;47.532;19.084;2024-01-16T06:39:41;2.87;;;2.62;;
62121;SDS011;48108;47.532;19.084;2024-01-16T06:42:44;3.70;;;3.22;;
62121;SDS011;48108;47.532;19.084;2024-01-16T06:45:47;2.50;;;2.30;;
62121;SDS011;48108;47.532;19.084;2024-01-16T06:48:50;2.70;;;2.50;;
62121;SDS011;48108;47.532;19.084;2024-01-16T06:51:53;6.78;;;3.37;;
62121;SDS011;48108;47.532;19.084;2024-01-16T06:54:56;3.25;;;2.75;;
62121;SDS011;48108;47.532;19.084;2024-01-16T06:57:58;5.25;;;3.12;;
62121;SDS011;48108;47.532;19.084;2024-01-16T07:01:02;3.40;;;3.10;;
62121;SDS011;48108;47.532;19.084;2024-01-16T07:04:06;4.90;;;2.90;;
62121;SDS011;48108;47.532;19.084;2024-01-16T07:07:09;2.97;;;2.78;;
62121;SDS011;48108;47.532;19.084;2024-01-16T07:10:11;3.40;;;3.10;;
62121;SDS011;48108;47.532;19.084;2024-01-16T07:13:20;5.10;;;2.60;;
62121;SDS011;48108;47.532;19.084;2024-01-16T07:16:23;3.15;;;2.37;;
62121;SDS011;48108;47.532;19.084;2024-01-16T07:19:27;3.70;;;2.92;;
62121;SDS011;48108;47.532;19.084;2024-01-16T07:22:30;3.20;;;2.67;;
62121;SDS011;48108;47.532;19.084;2024-01-16T07:25:33;3.87;;;2.95;;
62121;SDS011;48108;47.532;19.084;2024-01-16T07:28:36;3.22;;;2.55;;
62121;SDS011;48108;47.532;19.084;2024-01-16T07:31:42;3.90;;;3.08;;
62121;SDS011;48108;47.532;19.084;2024-01-16T07:34:45;3.47;;;1.98;;
62121;SDS011;48108;47.532;19.084;2024-01-16T07:37:48;5.45;;;2.70;;
62121;SDS011;48108;47.532;19.084;2024-01-16T07:40:50;2.85;;;2.40;;
62121;SDS011;48108;47.532;19.084;2024-01-16T07:43:53;4.12;;;2.47;;
62121;SDS011;48108;47.532;19.084;2024-01-16T07:46:56;5.37;;;2.78;;
62121;SDS011;48108;47.532;19.084;2024-01-16T07:49:59;4.60;;;2.22;;
62121;SDS011;48108;47.532;19.084;2024-01-16T07:53:05;2.97;;;2.35;;
62121;SDS011;48108;47.532;19.084;2024-01-16T07:56:08;2.65;;;2.45;;
62121;SDS011;48108;47.532;19.084;2024-01-16T07:59:11;3.00;;;2.70;;
62121;SDS011;48108;47.532;19.084;2024-01-16T08:02:14;2.40;;;2.20;;
62121;SDS011;48108;47.532;19.084;2024-01-16T08:05:17;3.03;;;2.42;;
62121;SDS011;48108;47.532;19.084;2024-01-16T08:08:24;3.62;;;2.75;;
62121;SDS011;48108;47.532;19.084;2024-01-16T08:11:27;3.00;;;2.30;;
62121;SDS011;48108;47.532;19.084;2024-01-16T08:14:31;4.00;;;2.30;;
62121;SDS011;48108;47.532;19.084;2024-01-16T08:17:34;2.75;;;2.12;;
62121;SDS011;48108;47.532;19.084;2024-01-16T08:20:37;3.78;;;2.50;;
62121;SDS011;48108;47.532;19.084;2024-01-16T08:23:40;2.47;;;2.28;;
62121;SDS011;48108;47.532;19.084;2024-01-16T08:26:43;2.87;;;2.22;;
62121;SDS011;48108;47.532;19.084;2024-01-16T08:29:47;3.60;;;2.47;;
62121;SDS011;48108;47.532;19.084;2024-01-16T08:32:52;3.17;;;2.83;;
62121;SDS011;48108;47.532;19.084;2024-01-16T08:35:55;3.83;;;2.67;;
62121;SDS011;48108;47.532;19.084;2024-01-16T08:38:58;8.13;;;2.50;;
62121;SDS011;48108;47.532;19.084;2024-01-16T08:42:01;3.83;;;2.35;;
62121;SDS011;48108;47.532;19.084;2024-01-16T08:45:05;4.20;;;2.85;;
62121;SDS011;48108;47.532;19.084;2024-01-16T08:48:09;4.87;;;2.70;;
62121;SDS011;48108;47.532;19.084;2024-01-16T08:51:12;4.72;;;2.58;;
62121;SDS011;48108;47.532;19.084;2024-01-16T08:54:15;6.05;;;2.85;;
62121;SDS011;48108;47.532;19.084;2024-01-16T08:57:20;4.43;;;2.42;;
62121;SDS011;48108;47.532;19.084;2024-01-16T09:00:28;4.18;;;2.50;;
62121;SDS011;48108;47.532;19.084;2024-01-16T09:03:32;4.00;;;2.90;;
62121;SDS011;48108;47.532;19.084;2024-01-16T09:06:36;5.95;;;2.22;;
62121;SDS011;48108;47.532;19.084;2024-01-16T09:09:39;3.62;;;2.55;;
62121;SDS011;48108;47.532;19.084;2024-01-16T09:12:44;3.37;;;2.30;;
62121;SDS011;48108;47.532;19.084;2024-01-16T09:15:47;5.25;;;2.92;;
62121;SDS011;48108;47.532;19.084;2024-01-16T09:18:51;2.97;;;2.30;;
62121;SDS011;48108;47.532;19.084;2024-01-16T09:21:57;3.92;;;2.40;;
62121;SDS011;48108;47.532;19.084;2024-01-16T09:25:00;6.70;;;3.30;;
62121;SDS011;48108;47.532;19.084;2024-01-16T09:28:03;3.00;;;2.62;;
62121;SDS011;48108;47.532;19.084;2024-01-16T09:31:06;3.58;;;2.40;;
62121;SDS011;48108;47.532;19.084;2024-01-16T09:34:10;5.37;;;2.62;;
62121;SDS011;48108;47.532;19.084;2024-01-16T09:37:15;5.28;;;2.40;;
62121;SDS011;48108;47.532;19.084;2024-01-16T09:40:18;2.78;;;2.33;;
62121;SDS011;48108;47.532;19.084;2024-01-16T09:43:21;6.47;;;2.65;;
62121;SDS011;48108;47.532;19.084;2024-01-16T09:46:24;11.27;;;2.37;;
62121;SDS011;48108;47.532;19.084;2024-01-16T09:49:29;3.05;;;2.12;;
62121;SDS011;48108;47.532;19.084;2024-01-16T09:52:32;3.58;;;2.37;;
62121;SDS011;48108;47.532;19.084;2024-01-16T09:55:36;5.57;;;2.17;;
62121;SDS011;48108;47.532;19.084;2024-01-16T09:58:38;3.22;;;1.92;;
62121;SDS011;48108;47.532;19.084;2024-01-16T10:01:42;3.03;;;2.67;;
62121;SDS011;48108;47.532;19.084;2024-01-16T10:04:46;7.05;;;3.45;;
62121;SDS011;48108;47.532;19.084;2024-01-16T10:07:49;4.03;;;2.03;;
62121;SDS011;48108;47.532;19.084;2024-01-16T10:10:53;5.40;;;2.03;;
62121;SDS011;48108;47.532;19.084;2024-01-16T10:13:57;5.65;;;2.42;;
62121;SDS011;48108;47.532;19.084;2024-01-16T10:17:01;4.72;;;2.20;;
62121;SDS011;48108;47.532;19.084;2024-01-16T10:20:09;4.37;;;2.30;;
62121;SDS011;48108;47.532;19.084;2024-01-16T10:23:22;3.17;;;2.70;;
62121;SDS011;48108;47.532;19.084;2024-01-16T10:26:25;2.50;;;2.20;;
62121;SDS011;48108;47.532;19.084;2024-01-16T10:29:29;7.47;;;2.95;;
62121;SDS011;48108;47.532;19.084;2024-01-16T10:32:51;8.77;;;2.50;;
62121;SDS011;48108;47.532;19.084;2024-01-16T10:36:13;4.93;;;3.10;;
62121;SDS011;48108;47.532;19.084;2024-01-16T10:39:19;5.05;;;2.33;;
62121;SDS011;48108;47.532;19.084;2024-01-16T10:42:27;3.00;;;2.75;;
62121;SDS011;48108;47.532;19.084;2024-01-16T10:45:30;5.30;;;2.50;;
62121;SDS011;48108;47.532;19.084;2024-01-16T10:48:34;6.03;;;2.55;;
62121;SDS011;48108;47.532;19.084;2024-01-16T10:51:37;3.35;;;2.33;;
62121;SDS011;48108;47.532;19.084;2024-01-16T10:54:42;2.40;;;2.20;;
62121;SDS011;48108;47.532;19.084;2024-01-16T10:57:47;2.30;;;2.10;;
62121;SDS011;48108;47.532;19.084;2024-01-16T11:00:52;2.67;;;2.08;;
62121;SDS011;48108;47.532;19.084;2024-01-16T11:03:56;2.15;;;2.03;;
62121;SDS011;48108;47.532;19.084;2024-01-16T11:07:02;5.37;;;2.10;;
62121;SDS011;48108;47.532;19.084;2024-01-16T11:10:07;5.97;;;2.22;;
62121;SDS011;48108;47.532;19.084;2024-01-16T11:13:11;5.07;;;2.42;;
62121;SDS011;48108;47.532;19.084;2024-01-16T11:16:16;4.22;;;2.60;;
62121;SDS011;48108;47.532;19.084;2024-01-16T11:19:21;4.12;;;2.47;;
62121;SDS011;48108;47.532;19.084;2024-01-16T11:22:44;2.67;;;2.03;;
62121;SDS011;48108;47.532;19.084;2024-01-16T11:25:48;3.30;;;2.50;;
62121;SDS011;48108;47.532;19.084;2024-01-16T11:28:52;3.08;;;2.05;;
62121;SDS011;48108;47.532;19.084;2024-01-16T11:31:57;3.30;;;2.72;;
62121;SDS011;48108;47.532;19.084;2024-01-16T11:35:04;4.22;;;2.12;;
62121;SDS011;48108;47.532;19.084;2024-01-16T11:38:14;7.03;;;2.45;;
62121;SDS011;48108;47.532;19.084;2024-01-16T11:42:05;2.22;;;2.08;;
62121;SDS011;48108;47.532;19.084;2024-01-16T11:44:54;4.68;;;3.05;;
62121;SDS011;48108;47.532;19.084;2024-01-16T11:48:11;2.35;;;2.00;;
62121;SDS011;48108;47.532;19.084;2024-01-16T11:51:23;2.83;;;1.90;;
62121;SDS011;48108;47.532;19.084;2024-01-16T11:54:27;2.90;;;2.08;;
62121;SDS011;48108;47.532;19.084;2024-01-16T11:57:45;2.72;;;2.40;;
62121;SDS011;48108;47.532;19.084;2024-01-16T12:01:07;2.20;;;1.95;;
62121;SDS011;48108;47.532;19.084;2024-01-16T12:04:11;5.97;;;2.87;;
62121;SDS011;48108;47.532;19.084;2024-01-16T12:07:17;2.95;;;2.03;;
62121;SDS011;48108;47.532;19.084;2024-01-16T12:10:23;3.90;;;2.10;;
62121;SDS011;48108;47.532;19.084;2024-01-16T12:13:27;2.55;;;2.00;;
62121;SDS011;48108;47.532;19.084;2024-01-16T12:16:30;4.78;;;2.17;;
62121;SDS011;48108;47.532;19.084;2024-01-16T12:19:33;4.47;;;2.42;;
62121;SDS011;48108;47.532;19.084;2024-01-16T12:22:36;2.85;;;2.03;;
62121;SDS011;48108;47.532;19.084;2024-01-16T12:25:39;3.35;;;1.80;;
62121;SDS011;48108;47.532;19.084;2024-01-16T12:29:02;3.65;;;2.12;;
62121;SDS011;48108;47.532;19.084;2024-01-16T12:32:09;1.75;;;1.65;;
62121;SDS011;48108;47.532;19.084;2024-01-16T12:35:12;4.60;;;1.77;;
62121;SDS011;48108;47.532;19.084;2024-01-16T12:38:22;3.08;;;2.00;;
62121;SDS011;48108;47.532;19.084;2024-01-16T12:41:36;4.62;;;2.10;;
62121;SDS011;48108;47.532;19.084;2024-01-16T12:44:45;2.65;;;1.83;;
62121;SDS011;48108;47.532;19.084;2024-01-16T12:47:52;2.70;;;1.92;;
62121;SDS011;48108;47.532;19.084;2024-01-16T12:51:02;3.47;;;1.58;;
62121;SDS011;48108;47.532;19.084;2024-01-16T12:54:11;1.23;;;1.12;;
62121;SDS011;48108;47.532;19.084;2024-01-16T12:57:19;2.12;;;1.40;;
62121;SDS011;48108;47.532;19.084;2024-01-16T13:00:23;3.62;;;1.92;;
62121;SDS011;48108;47.532;19.084;2024-01-16T13:03:27;5.75;;;1.40;;
62121;SDS011;48108;47.532;19.084;2024-01-16T13:06:30;4.95;;;1.40;;
62121;SDS011;48108;47.532;19.084;2024-01-16T13:09:34;2.22;;;1.30;;
62121;SDS011;48108;47.532;19.084;2024-01-16T13:12:37;2.10;;;1.52;;
62121;SDS011;48108;47.532;19.084;2024-01-16T13:15:41;1.65;;;1.20;;
62121;SDS011;48108;47.532;19.084;2024-01-16T13:18:45;6.45;;;1.70;;
62121;SDS011;48108;47.532;19.084;2024-01-16T13:21:48;3.78;;;1.55;;
62121;SDS011;48108;47.532;19.084;2024-01-16T13:24:52;3.15;;;1.30;;
62121;SDS011;48108;47.532;19.084;2024-01-16T13:28:06;1.87;;;1.23;;
62121;SDS011;48108;47.532;19.084;2024-01-16T13:31:10;1.95;;;1.30;;
62121;SDS011;48108;47.532;19.084;2024-01-16T13:34:13;1.40;;;1.35;;
62121;SDS011;48108;47.532;19.084;2024-01-16T13:37:19;4.60;;;1.65;;
62121;SDS011;48108;47.532;19.084;2024-01-16T13:40:24;1.73;;;1.27;;
62121;SDS011;48108;47.532;19.084;2024-01-16T13:43:27;3.22;;;1.20;;
62121;SDS011;48108;47.532;19.084;2024-01-16T13:46:30;1.33;;;1.23;;
62121;SDS011;48108;47.532;19.084;2024-01-16T13:49:53;2.10;;;1.42;;
62121;SDS011;48108;47.532;19.084;2024-01-16T13:52:55;1.75;;;1.45;;
62121;SDS011;48108;47.532;19.084;2024-01-16T13:55:58;3.62;;;1.58;;
62121;SDS011;48108;47.532;19.084;2024-01-16T13:59:01;2.28;;;1.27;;
62121;SDS011;48108;47.532;19.084;2024-01-16T14:02:05;1.20;;;1.10;;
62121;SDS011;48108;47.532;19.084;2024-01-16T14:05:09;2.28;;;1.33;;
62121;SDS011;48108;47.532;19.084;2024-01-16T14:08:21;1.02;;;1.02;;
62121;SDS011;48108;47.532;19.084;2024-01-16T14:11:24;1.30;;;1.20;;
62121;SDS011;48108;47.532;19.084;2024-01-16T14:14:26;2.78;;;1.33;;
62121;SDS011;48108;47.532;19.084;2024-01-16T14:17:30;3.40;;;1.50;;
62121;SDS011;48108;47.532;19.084;2024-01-16T14:20:38;1.25;;;1.20;;
62121;SDS011;48108;47.532;19.084;2024-01-16T14:23:41;1.45;;;1.35;;
62121;SDS011;48108;47.532;19.084;2024-01-16T14:26:44;1.42;;;1.12;;
62121;SDS011;48108;47.532;19.084;2024-01-16T14:29:50;6.85;;;1.30;;
62121;SDS011;48108;47.532;19.084;2024-01-16T14:32:53;2.65;;;1.10;;
62121;SDS011;48108;47.532;19.084;2024-01-16T14:35:56;1.35;;;1.10;;
62121;SDS011;48108;47.532;19.084;2024-01-16T14:39:02;1.77;;;1.15;;
62121;SDS011;48108;47.532;19.084;2024-01-16T14:42:05;1.85;;;1.30;;
62121;SDS011;48108;47.532;19.084;2024-01-16T14:45:08;3.45;;;1.40;;
62121;SDS011;48108;47.532;19.084;2024-01-16T14:48:14;1.55;;;1.40;;
62121;SDS011;48108;47.532;19.084;2024-01-16T14:51:18;1.98;;;1.80;;
62121;SDS011;48108;47.532;19.084;2024-01-16T14:54:21;5.50;;;1.73;;
62121;SDS011;48108;47.532;19.084;2024-01-16T14:57:24;4.30;;;1.37;;
62121;SDS011;48108;47.532;19.084;2024-01-16T15:00:28;2.87;;;1.62;;
62121;SDS011;48108;47.532;19.084;2024-01-16T15:03:31;1.33;;;1.23;;
62121;SDS011;48108;47.532;19.084;2024-01-16T15:06:35;1.85;;;1.50;;
62121;SDS011;48108;47.532;19.084;2024-01-16T15:09:38;3.15;;;1.65;;
62121;SDS011;48108;47.532;19.084;2024-01-16T15:12:42;3.45;;;2.00;;
62121;SDS011;48108;47.532;19.084;2024-01-16T15:15:46;5.18;;;2.00;;
62121;SDS011;48108;47.532;19.084;2024-01-16T15:18:49;3.78;;;1.80;;
62121;SDS011;48108;47.532;19.084;2024-01-16T15:21:52;4.93;;;2.25;;
62121;SDS011;48108;47.532;19.084;2024-01-16T15:24:55;2.85;;;2.08;;
62121;SDS011;48108;47.532;19.084;2024-01-16T15:27:58;3.55;;;2.10;;
62121;SDS011;48108;47.532;19.084;2024-01-16T15:31:01;4.85;;;2.17;;
62121;SDS011;48108;47.532;19.084;2024-01-16T15:34:10;7.25;;;2.45;;
62121;SDS011;48108;47.532;19.084;2024-01-16T15:37:18;2.60;;;2.40;;
62121;SDS011;48108;47.532;19.084;2024-01-16T15:40:21;4.72;;;2.45;;
62121;SDS011;48108;47.532;19.084;2024-01-16T15:43:25;3.50;;;2.40;;
62121;SDS011;48108;47.532;19.084;2024-01-16T15:46:28;2.80;;;2.60;;
62121;SDS011;48108;47.532;19.084;2024-01-16T15:49:31;4.43;;;2.47;;
62121;SDS011;48108;47.532;19.084;2024-01-16T15:52:34;21.42;;;2.92;;
62121;SDS011;48108;47.532;19.084;2024-01-16T15:55:37;5.18;;;2.30;;
62121;SDS011;48108;47.532;19.084;2024-01-16T15:58:40;4.37;;;2.65;;
62121;SDS011;48108;47.532;19.084;2024-01-16T16:01:43;4.75;;;2.83;;
62121;SDS011;48108;47.532;19.084;2024-01-16T16:04:47;5.32;;;2.50;;
62121;SDS011;48108;47.532;19.084;2024-01-16T16:07:49;5.03;;;2.45;;
62121;SDS011;48108;47.532;19.084;2024-01-16T16:10:52;5.00;;;2.60;;
62121;SDS011;48108;47.532;19.084;2024-01-16T16:13:55;8.70;;;4.40;;
62121;SDS011;48108;47.532;19.084;2024-01-16T16:16:58;4.05;;;2.72;;
62121;SDS011;48108;47.532;19.084;2024-01-16T16:20:04;6.85;;;3.00;;
62121;SDS011;48108;47.532;19.084;2024-01-16T16:23:08;4.72;;;2.65;;
62121;SDS011;48108;47.532;19.084;2024-01-16T16:26:11;7.93;;;2.72;;
62121;SDS011;48108;47.532;19.084;2024-01-16T16:29:14;5.45;;;3.33;;
62121;SDS011;48108;47.532;19.084;2024-01-16T16:32:16;6.25;;;3.37;;
62121;SDS011;48108;47.532;19.084;2024-01-16T16:35:20;4.87;;;3.33;;
62121;SDS011;48108;47.532;19.084;2024-01-16T16:38:22;4.40;;;2.40;;
62121;SDS011;48108;47.532;19.084;2024-01-16T16:41:26;6.55;;;2.70;;
62121;SDS011;48108;47.532;19.084;2024-01-16T16:44:30;6.35;;;2.70;;
62121;SDS011;48108;47.532;19.084;2024-01-16T16:47:33;4.07;;;2.40;;
62121;SDS011;48108;47.532;19.084;2024-01-16T16:50:36;5.00;;;2.72;;
62121;SDS011;48108;47.532;19.084;2024-01-16T16:53:39;4.00;;;2.42;;
